createdAt,value
2019-01-25T00:01:08.449Z,66.50
2019-01-25T00:02:14.723Z,66.50
2019-01-25T00:03:18.978Z,66.40
2019-01-25T00:04:23.242Z,66.40
2019-01-25T00:05:27.564Z,66.40
2019-01-25T00:06:31.818Z,66.60
2019-01-25T00:07:36.151Z,66.40
2019-01-25T00:08:40.478Z,66.40
2019-01-25T00:09:44.762Z,65.50
2019-01-25T00:10:49.014Z,65.90
2019-01-25T00:11:53.274Z,66.00
2019-01-25T00:12:57.528Z,66.40
2019-01-25T00:14:01.833Z,66.40
2019-01-25T00:15:06.569Z,66.70
2019-01-25T00:16:10.902Z,66.60
2019-01-25T00:17:15.291Z,66.40
2019-01-25T00:18:19.572Z,65.60
2019-01-25T00:19:23.842Z,65.60
2019-01-25T00:20:28.115Z,65.70
2019-01-25T00:21:32.371Z,65.70
2019-01-25T00:22:36.709Z,65.60
2019-01-25T00:23:40.963Z,65.50
2019-01-25T00:24:45.231Z,65.70
2019-01-25T00:25:49.480Z,64.60
2019-01-25T00:26:53.734Z,65.10
2019-01-25T00:27:57.982Z,65.50
2019-01-25T00:29:02.263Z,66.00
2019-01-25T00:30:08.654Z,66.20
2019-01-25T00:31:12.905Z,65.60
2019-01-25T00:32:17.178Z,65.00
2019-01-25T00:33:21.440Z,65.00
2019-01-25T00:34:25.714Z,64.90
2019-01-25T00:35:30.038Z,65.10
2019-01-25T00:36:34.305Z,65.40
2019-01-25T00:37:38.629Z,65.50
2019-01-25T00:38:42.880Z,65.80
2019-01-25T00:39:47.146Z,66.30
2019-01-25T00:40:51.410Z,66.50
2019-01-25T00:41:55.657Z,66.60
2019-01-25T00:42:59.928Z,66.60
2019-01-25T00:44:04.321Z,66.50
2019-01-25T00:45:09.252Z,66.20
2019-01-25T00:46:13.586Z,65.90
2019-01-25T00:47:17.841Z,66.00
2019-01-25T00:48:22.089Z,66.40
2019-01-25T00:49:26.729Z,66.10
2019-01-25T00:50:30.988Z,66.20
2019-01-25T00:51:35.245Z,66.40
2019-01-25T00:52:39.609Z,66.60
2019-01-25T00:53:43.878Z,66.90
2019-01-25T00:54:48.141Z,66.80
2019-01-25T00:55:52.418Z,67.00
2019-01-25T00:56:56.675Z,67.20
2019-01-25T00:58:00.939Z,67.10
2019-01-25T00:59:05.369Z,67.10
2019-01-25T01:00:13.559Z,67.00
2019-01-25T01:01:17.890Z,66.90
2019-01-25T01:02:22.234Z,66.90
2019-01-25T01:03:26.499Z,67.10
2019-01-25T01:04:30.753Z,67.40
2019-01-25T01:05:35.205Z,67.40
2019-01-25T01:06:39.539Z,67.60
2019-01-25T01:07:44.040Z,67.80
2019-01-25T01:08:48.292Z,68.00
2019-01-25T01:09:52.579Z,68.00
2019-01-25T01:10:56.899Z,67.90
2019-01-25T01:12:01.230Z,67.80
2019-01-25T01:13:05.637Z,68.70
2019-01-25T01:14:09.896Z,68.00
2019-01-25T01:15:15.082Z,68.10
2019-01-25T01:16:19.343Z,68.10
2019-01-25T01:17:23.670Z,68.30
2019-01-25T01:18:28.013Z,68.40
2019-01-25T01:19:32.287Z,68.60
2019-01-25T01:20:36.546Z,68.70
2019-01-25T01:21:40.809Z,68.60
2019-01-25T01:22:45.210Z,68.70
2019-01-25T01:23:49.469Z,68.70
2019-01-25T01:24:53.727Z,68.50
2019-01-25T01:25:57.986Z,68.10
2019-01-25T01:27:02.254Z,68.00
2019-01-25T01:28:06.505Z,68.00
2019-01-25T01:29:10.758Z,67.50
2019-01-25T01:30:22.842Z,67.60
2019-01-25T01:31:27.095Z,67.90
2019-01-25T01:32:31.388Z,68.10
2019-01-25T01:33:35.638Z,68.10
2019-01-25T01:34:39.899Z,67.90
2019-01-25T01:35:44.157Z,67.90
2019-01-25T01:36:48.414Z,68.10
2019-01-25T01:37:52.919Z,68.50
2019-01-25T01:38:57.245Z,69.30
2019-01-25T01:40:01.680Z,68.60
2019-01-25T01:41:05.959Z,68.50
2019-01-25T01:42:10.207Z,68.50
2019-01-25T01:43:14.738Z,68.20
2019-01-25T01:44:18.994Z,68.30
2019-01-25T01:45:23.422Z,68.40
2019-01-25T01:46:27.678Z,68.00
2019-01-25T01:47:31.942Z,67.80
2019-01-25T01:48:36.198Z,67.80
2019-01-25T01:49:40.471Z,68.00
2019-01-25T01:50:44.742Z,68.20
2019-01-25T01:51:48.999Z,68.90
2019-01-25T01:52:53.418Z,67.80
2019-01-25T01:53:57.682Z,68.10
2019-01-25T01:55:01.938Z,68.10
2019-01-25T01:56:06.223Z,68.60
2019-01-25T01:57:10.496Z,67.60
2019-01-25T01:58:14.745Z,68.50
2019-01-25T01:59:19.002Z,67.50
2019-01-25T02:00:27.510Z,67.60
2019-01-25T02:01:31.834Z,68.00
2019-01-25T02:02:36.086Z,68.10
2019-01-25T02:03:40.350Z,68.00
2019-01-25T02:04:44.597Z,67.90
2019-01-25T02:05:48.950Z,68.00
2019-01-25T02:06:53.209Z,67.90
2019-01-25T02:07:57.552Z,67.80
2019-01-25T02:09:01.882Z,67.50
2019-01-25T02:10:07.908Z,67.40
2019-01-25T02:11:12.259Z,67.10
2019-01-25T02:12:16.518Z,67.20
2019-01-25T02:13:20.854Z,67.00
2019-01-25T02:14:27.928Z,66.90
2019-01-25T02:15:32.205Z,66.90
2019-01-25T02:16:36.481Z,66.80
2019-01-25T02:17:40.829Z,66.80
2019-01-25T02:18:45.093Z,66.70
2019-01-25T02:19:49.380Z,66.70
2019-01-25T02:20:53.722Z,67.50
2019-01-25T02:21:58.073Z,66.70
2019-01-25T02:23:02.342Z,66.60
2019-01-25T02:24:06.686Z,66.40
2019-01-25T02:25:11.101Z,66.20
2019-01-25T02:26:15.389Z,65.90
2019-01-25T02:27:19.664Z,66.70
2019-01-25T02:28:24.011Z,67.80
2019-01-25T02:29:28.278Z,68.00
2019-01-25T02:30:32.590Z,68.00
2019-01-25T02:31:36.943Z,67.80
2019-01-25T02:32:41.217Z,67.50
2019-01-25T02:33:45.496Z,67.10
2019-01-25T02:34:49.769Z,66.80
2019-01-25T02:35:54.037Z,66.60
2019-01-25T02:36:58.315Z,66.20
2019-01-25T02:38:02.594Z,66.00
2019-01-25T02:39:08.458Z,65.70
2019-01-25T02:40:14.284Z,65.70
2019-01-25T02:41:18.570Z,65.40
2019-01-25T02:42:22.857Z,65.30
2019-01-25T02:43:27.130Z,65.10
2019-01-25T02:44:31.398Z,64.50
2019-01-25T02:45:35.669Z,64.40
2019-01-25T02:46:39.954Z,64.10
2019-01-25T02:47:44.374Z,64.50
2019-01-25T02:48:48.650Z,63.40
2019-01-25T02:49:52.918Z,63.40
2019-01-25T02:50:57.187Z,63.20
2019-01-25T02:52:01.528Z,62.90
2019-01-25T02:53:05.883Z,62.70
2019-01-25T02:54:10.153Z,62.70
2019-01-25T02:55:14.897Z,62.50
2019-01-25T02:56:19.154Z,62.30
2019-01-25T02:57:23.441Z,62.30
2019-01-25T02:58:27.705Z,62.50
2019-01-25T02:59:31.976Z,62.80
2019-01-25T03:00:36.245Z,62.30
2019-01-25T03:01:40.520Z,62.30
2019-01-25T03:02:44.873Z,62.20
2019-01-25T03:03:49.140Z,62.30
2019-01-25T03:04:53.414Z,62.10
2019-01-25T03:05:57.679Z,62.70
2019-01-25T03:07:01.949Z,61.70
2019-01-25T03:08:06.331Z,61.60
2019-01-25T03:09:10.837Z,61.80
2019-01-25T03:10:15.585Z,61.90
2019-01-25T03:11:19.854Z,62.00
2019-01-25T03:12:24.121Z,62.90
2019-01-25T03:13:28.406Z,62.40
2019-01-25T03:14:32.677Z,62.40
2019-01-25T03:15:36.942Z,62.60
2019-01-25T03:16:41.210Z,62.80
2019-01-25T03:17:45.826Z,62.80
2019-01-25T03:18:50.111Z,63.20
2019-01-25T03:19:54.449Z,64.00
2019-01-25T03:20:58.719Z,64.30
2019-01-25T03:22:02.978Z,65.20
2019-01-25T03:23:07.334Z,65.90
2019-01-25T03:24:11.610Z,66.30
2019-01-25T03:25:18.434Z,66.60
2019-01-25T03:26:22.705Z,66.80
2019-01-25T03:27:27.054Z,67.00
2019-01-25T03:28:31.330Z,67.20
2019-01-25T03:29:35.601Z,67.10
2019-01-25T03:30:39.943Z,67.20
2019-01-25T03:31:44.212Z,67.30
2019-01-25T03:32:48.639Z,67.40
2019-01-25T03:33:52.978Z,67.30
2019-01-25T03:34:57.258Z,67.30
2019-01-25T03:36:01.598Z,67.30
2019-01-25T03:37:05.952Z,67.20
2019-01-25T03:38:10.281Z,67.10
2019-01-25T03:39:14.632Z,67.20
2019-01-25T03:40:20.901Z,68.00
2019-01-25T03:41:25.164Z,67.50
2019-01-25T03:42:29.513Z,67.50
2019-01-25T03:43:34.509Z,67.50
2019-01-25T03:44:38.846Z,67.50
2019-01-25T03:45:43.194Z,67.50
2019-01-25T03:46:47.463Z,67.30
2019-01-25T03:47:51.739Z,67.30
2019-01-25T03:48:56.037Z,67.40
2019-01-25T03:50:00.483Z,67.50
2019-01-25T03:51:04.905Z,67.60
2019-01-25T03:52:09.253Z,67.50
2019-01-25T03:53:13.558Z,67.20
2019-01-25T03:54:17.842Z,67.40
2019-01-25T03:55:22.359Z,67.40
2019-01-25T03:56:26.634Z,67.20
2019-01-25T03:57:30.918Z,67.50
2019-01-25T03:58:35.218Z,67.80
2019-01-25T03:59:39.514Z,68.10
2019-01-25T04:00:43.790Z,68.20
2019-01-25T04:01:48.138Z,69.00
2019-01-25T04:02:52.674Z,68.20
2019-01-25T04:03:56.957Z,68.70
2019-01-25T04:05:01.254Z,67.80
2019-01-25T04:06:05.701Z,68.70
2019-01-25T04:07:10.046Z,68.10
2019-01-25T04:08:14.317Z,67.90
2019-01-25T04:09:18.666Z,68.00
2019-01-25T04:10:24.469Z,68.20
2019-01-25T04:11:28.734Z,68.50
2019-01-25T04:12:33.007Z,69.40
2019-01-25T04:13:37.280Z,69.00
2019-01-25T04:14:41.555Z,69.10
2019-01-25T04:15:46.007Z,69.30
2019-01-25T04:16:50.299Z,69.30
2019-01-25T04:17:54.657Z,69.30
2019-01-25T04:18:59.090Z,69.20
2019-01-25T04:20:03.530Z,69.00
2019-01-25T04:21:07.813Z,68.90
2019-01-25T04:22:12.159Z,69.60
2019-01-25T04:23:16.427Z,68.60
2019-01-25T04:24:20.701Z,68.40
2019-01-25T04:25:25.218Z,69.30
2019-01-25T04:26:29.558Z,68.50
2019-01-25T04:27:33.901Z,68.40
2019-01-25T04:28:38.166Z,68.30
2019-01-25T04:29:42.449Z,68.20
2019-01-25T04:30:46.714Z,67.90
2019-01-25T04:31:50.989Z,68.20
2019-01-25T04:32:55.423Z,68.60
2019-01-25T04:33:59.699Z,68.70
2019-01-25T04:35:04.747Z,68.30
2019-01-25T04:36:09.149Z,68.20
2019-01-25T04:37:13.485Z,68.40
2019-01-25T04:38:17.767Z,68.30
2019-01-25T04:39:22.148Z,68.70
2019-01-25T04:40:26.433Z,68.70
2019-01-25T04:41:30.715Z,69.00
2019-01-25T04:42:34.989Z,69.00
2019-01-25T04:43:39.262Z,68.90
2019-01-25T04:44:43.545Z,69.50
2019-01-25T04:45:47.822Z,68.70
2019-01-25T04:46:52.165Z,69.00
2019-01-25T04:47:56.458Z,69.00
2019-01-25T04:49:00.758Z,69.00
2019-01-25T04:50:06.938Z,68.80
2019-01-25T04:51:11.290Z,68.60
2019-01-25T04:52:15.703Z,68.70
2019-01-25T04:53:19.966Z,68.90
2019-01-25T04:54:24.254Z,68.50
2019-01-25T04:55:33.095Z,69.30
2019-01-25T04:56:40.430Z,68.30
2019-01-25T04:57:45.008Z,68.50
2019-01-25T04:58:49.582Z,68.50
2019-01-25T04:59:54.006Z,68.50
2019-01-25T05:01:06.150Z,68.50
2019-01-25T05:02:10.498Z,68.60
2019-01-25T05:03:15.258Z,68.80
2019-01-25T05:04:19.537Z,69.00
2019-01-25T05:05:23.922Z,68.50
2019-01-25T05:06:28.195Z,68.40
2019-01-25T05:07:32.494Z,68.50
2019-01-25T05:08:37.077Z,69.60
2019-01-25T05:09:41.371Z,69.10
2019-01-25T05:10:45.778Z,69.30
2019-01-25T05:11:50.046Z,69.40
2019-01-25T05:12:54.415Z,69.40
2019-01-25T05:13:58.684Z,69.50
2019-01-25T05:15:02.963Z,69.50
2019-01-25T05:16:09.987Z,69.60
2019-01-25T05:17:14.254Z,69.60
2019-01-25T05:18:18.620Z,69.50
2019-01-25T05:19:22.906Z,69.40
2019-01-25T05:20:27.418Z,69.30
2019-01-25T05:21:31.762Z,69.30
2019-01-25T05:22:36.030Z,69.30
2019-01-25T05:23:40.306Z,70.10
2019-01-25T05:24:44.719Z,69.30
2019-01-25T05:25:49.015Z,69.30
2019-01-25T05:26:58.040Z,69.20
2019-01-25T05:28:11.579Z,69.10
2019-01-25T05:29:15.838Z,69.20
2019-01-25T05:30:20.337Z,70.00
2019-01-25T05:31:27.602Z,69.20
2019-01-25T05:32:31.965Z,69.10
2019-01-25T05:33:36.556Z,69.20
2019-01-25T05:34:40.849Z,69.10
2019-01-25T05:35:45.302Z,69.30
2019-01-25T05:36:49.610Z,69.30
2019-01-25T05:37:53.927Z,69.30
2019-01-25T05:38:58.214Z,69.40
2019-01-25T05:40:02.530Z,69.30
2019-01-25T05:41:06.818Z,69.10
2019-01-25T05:42:11.293Z,69.80
2019-01-25T05:43:15.645Z,68.80
2019-01-25T05:44:19.912Z,69.10
2019-01-25T05:45:24.256Z,69.30
2019-01-25T05:46:28.527Z,69.60
2019-01-25T05:47:32.798Z,70.00
2019-01-25T05:48:37.074Z,70.40
2019-01-25T05:49:41.491Z,71.50
2019-01-25T05:50:45.834Z,70.90
2019-01-25T05:51:50.106Z,71.10
2019-01-25T05:52:54.390Z,71.10
2019-01-25T05:53:58.658Z,70.90
2019-01-25T05:55:02.965Z,71.50
2019-01-25T05:56:07.799Z,70.80
2019-01-25T05:57:12.074Z,70.90
2019-01-25T05:58:16.350Z,70.80
2019-01-25T05:59:23.879Z,70.60
2019-01-25T06:00:31.406Z,70.60
2019-01-25T06:01:37.327Z,70.50
2019-01-25T06:02:41.597Z,70.60
2019-01-25T06:03:45.868Z,70.80
2019-01-25T06:04:50.124Z,70.80
2019-01-25T06:06:00.146Z,70.80
2019-01-25T06:07:04.553Z,71.50
2019-01-25T06:08:32.501Z,70.40
2019-01-25T06:09:36.826Z,70.40
2019-01-25T06:10:41.102Z,70.10
2019-01-25T06:11:45.382Z,69.60
2019-01-25T06:12:53.293Z,69.50
2019-01-25T06:13:57.602Z,69.60
2019-01-25T06:15:01.990Z,69.60
2019-01-25T06:16:06.614Z,69.80
2019-01-25T06:17:10.909Z,70.20
2019-01-25T06:18:15.182Z,70.50
2019-01-25T06:19:19.449Z,70.70
2019-01-25T06:20:23.730Z,70.50
2019-01-25T06:21:27.997Z,70.50
2019-01-25T06:22:32.283Z,70.90
2019-01-25T06:23:36.654Z,70.90
2019-01-25T06:24:42.508Z,70.80
2019-01-25T06:25:51.605Z,71.00
2019-01-25T06:26:55.885Z,71.30
2019-01-25T06:28:00.164Z,71.40
2019-01-25T06:29:04.507Z,71.20
2019-01-25T06:30:12.621Z,71.20
2019-01-25T06:31:19.835Z,71.20
2019-01-25T06:32:24.146Z,71.20
2019-01-25T06:33:28.557Z,71.20
2019-01-25T06:34:32.902Z,71.30
2019-01-25T06:35:37.167Z,71.50
2019-01-25T06:36:41.443Z,71.50
2019-01-25T06:37:45.721Z,71.70
2019-01-25T06:38:50.766Z,72.00
2019-01-25T06:39:55.030Z,72.10
2019-01-25T06:40:59.569Z,72.20
2019-01-25T06:42:03.930Z,72.20
2019-01-25T06:43:08.365Z,72.40
2019-01-25T06:44:12.638Z,72.20
2019-01-25T06:45:17.057Z,72.10
2019-01-25T06:46:21.326Z,72.10
2019-01-25T06:47:25.601Z,72.10
2019-01-25T06:48:29.965Z,72.20
2019-01-25T06:49:34.246Z,72.30
2019-01-25T06:50:38.513Z,72.60
2019-01-25T06:51:42.794Z,72.90
2019-01-25T06:52:47.056Z,72.90
2019-01-25T06:53:51.341Z,73.10
2019-01-25T06:54:55.609Z,73.30
2019-01-25T06:55:59.886Z,73.30
2019-01-25T06:57:09.154Z,73.40
2019-01-25T06:58:32.526Z,72.80
2019-01-25T06:59:38.494Z,72.50
2019-01-25T07:00:48.555Z,72.50
2019-01-25T07:01:56.690Z,72.50
2019-01-25T07:03:01.045Z,72.50
2019-01-25T07:04:05.618Z,72.70
2019-01-25T07:05:10.090Z,73.00
2019-01-25T07:06:14.437Z,73.10
2019-01-25T07:07:29.361Z,73.40
2019-01-25T07:08:33.649Z,73.40
2019-01-25T07:09:37.917Z,73.60
2019-01-25T07:10:42.190Z,73.60
2019-01-25T07:11:51.473Z,73.50
2019-01-25T07:12:52.429Z,73.40
2019-01-25T07:13:56.705Z,73.70
2019-01-25T07:15:00.971Z,73.80
2019-01-25T07:16:05.398Z,73.60
2019-01-25T07:17:09.674Z,73.90
2019-01-25T07:18:13.953Z,74.20
2019-01-25T07:19:18.241Z,74.00
2019-01-25T07:20:22.509Z,74.00
2019-01-25T07:21:26.860Z,73.70
2019-01-25T07:22:31.173Z,73.70
2019-01-25T07:23:35.602Z,73.90
2019-01-25T07:24:39.896Z,74.10
2019-01-25T07:25:44.242Z,75.00
2019-01-25T07:26:48.509Z,74.80
2019-01-25T07:27:52.857Z,75.00
2019-01-25T07:28:57.126Z,75.20
2019-01-25T07:30:01.442Z,75.20
2019-01-25T07:31:06.017Z,75.30
2019-01-25T07:32:10.569Z,75.30
2019-01-25T07:33:14.814Z,75.70
2019-01-25T07:34:19.086Z,75.60
2019-01-25T07:35:23.358Z,75.80
2019-01-25T07:36:27.720Z,75.60
2019-01-25T07:37:31.987Z,75.70
2019-01-25T07:38:36.251Z,75.80
2019-01-25T07:39:40.628Z,76.70
2019-01-25T07:40:45.034Z,75.70
2019-01-25T07:41:49.301Z,75.50
2019-01-25T07:42:53.678Z,76.20
2019-01-25T07:43:58.019Z,75.60
2019-01-25T07:45:02.434Z,75.60
2019-01-25T07:46:06.818Z,75.40
2019-01-25T07:47:11.162Z,75.50
2019-01-25T07:48:15.502Z,75.40
2019-01-25T07:49:19.775Z,75.30
2019-01-25T07:50:24.052Z,75.20
2019-01-25T07:51:28.317Z,75.10
2019-01-25T07:52:32.587Z,75.00
2019-01-25T07:53:36.931Z,75.00
2019-01-25T07:54:41.206Z,74.90
2019-01-25T07:55:45.510Z,74.50
2019-01-25T07:56:49.805Z,74.10
2019-01-25T07:57:54.050Z,74.20
2019-01-25T07:58:58.319Z,74.40
2019-01-25T08:00:02.590Z,74.40
2019-01-25T08:01:06.954Z,75.20
2019-01-25T08:02:11.299Z,74.40
2019-01-25T08:03:15.731Z,74.50
2019-01-25T08:04:20.074Z,74.40
2019-01-25T08:05:24.536Z,74.10
2019-01-25T08:06:28.869Z,73.60
2019-01-25T08:07:33.203Z,73.60
2019-01-25T08:08:37.672Z,74.20
2019-01-25T08:09:42.110Z,75.50
2019-01-25T08:10:46.404Z,74.80
2019-01-25T08:11:50.682Z,74.00
2019-01-25T08:12:55.090Z,73.90
2019-01-25T08:13:59.362Z,73.90
2019-01-25T08:15:04.413Z,74.00
2019-01-25T08:16:08.710Z,74.00
2019-01-25T08:17:12.974Z,73.60
2019-01-25T08:18:17.251Z,73.40
2019-01-25T08:19:21.543Z,73.00
2019-01-25T08:20:25.888Z,72.90
2019-01-25T08:21:30.335Z,72.80
2019-01-25T08:22:34.974Z,73.00
2019-01-25T08:23:39.315Z,73.20
2019-01-25T08:24:43.616Z,72.70
2019-01-25T08:25:48.426Z,72.00
2019-01-25T08:26:52.729Z,71.80
2019-01-25T08:27:57.062Z,70.50
2019-01-25T08:29:01.460Z,68.00
2019-01-25T08:30:08.688Z,67.30
2019-01-25T08:31:13.060Z,66.50
2019-01-25T08:32:17.398Z,65.50
2019-01-25T08:33:21.902Z,64.90
2019-01-25T08:34:26.290Z,63.90
2019-01-25T08:35:30.550Z,63.50
2019-01-25T08:36:34.905Z,63.30
2019-01-25T08:37:39.206Z,63.10
2019-01-25T08:38:43.597Z,62.80
2019-01-25T08:39:47.930Z,62.60
2019-01-25T08:40:52.517Z,62.40
2019-01-25T08:41:57.361Z,61.70
2019-01-25T08:43:01.776Z,61.20
2019-01-25T08:44:06.072Z,60.90
2019-01-25T08:45:11.729Z,60.70
2019-01-25T08:46:16.034Z,60.50
2019-01-25T08:47:20.409Z,61.50
2019-01-25T08:48:24.763Z,61.10
2019-01-25T08:49:29.313Z,62.00
2019-01-25T08:50:34.037Z,61.20
2019-01-25T08:51:38.610Z,61.20
2019-01-25T08:52:43.025Z,61.20
2019-01-25T08:53:47.300Z,61.40
2019-01-25T08:54:51.650Z,62.80
2019-01-25T08:55:56.237Z,62.00
2019-01-25T08:57:00.511Z,61.60
2019-01-25T08:58:05.084Z,61.30
2019-01-25T08:59:09.513Z,61.20
2019-01-25T09:00:16.603Z,60.60
2019-01-25T09:01:20.894Z,60.50
2019-01-25T09:02:25.238Z,60.90
2019-01-25T09:03:29.513Z,61.20
2019-01-25T09:04:33.786Z,61.30
2019-01-25T09:05:38.058Z,61.30
2019-01-25T09:06:42.345Z,61.20
2019-01-25T09:07:46.810Z,61.20
2019-01-25T09:08:51.159Z,61.20
2019-01-25T09:09:55.437Z,61.00
2019-01-25T09:11:00.062Z,60.60
2019-01-25T09:12:04.619Z,60.50
2019-01-25T09:13:08.887Z,60.50
2019-01-25T09:14:13.149Z,60.50
2019-01-25T09:15:23.033Z,60.40
2019-01-25T09:16:27.302Z,60.30
2019-01-25T09:17:31.611Z,60.10
2019-01-25T09:18:35.965Z,59.80
2019-01-25T09:19:40.253Z,59.50
2019-01-25T09:20:44.546Z,59.30
2019-01-25T09:21:48.826Z,59.20
2019-01-25T09:22:53.119Z,59.20
2019-01-25T09:23:57.386Z,59.00
2019-01-25T09:25:01.670Z,58.60
2019-01-25T09:26:06.002Z,58.60
2019-01-25T09:27:10.362Z,58.30
2019-01-25T09:28:14.637Z,57.90
2019-01-25T09:29:19.046Z,57.50
2019-01-25T09:30:23.518Z,57.20
2019-01-25T09:31:27.798Z,57.00
2019-01-25T09:32:32.065Z,56.70
2019-01-25T09:33:36.346Z,56.30
2019-01-25T09:34:40.614Z,56.10
2019-01-25T09:35:44.885Z,55.70
2019-01-25T09:36:49.165Z,55.60
2019-01-25T09:37:53.820Z,55.50
2019-01-25T09:38:58.091Z,55.30
2019-01-25T09:40:02.478Z,55.10
2019-01-25T09:41:06.746Z,55.00
2019-01-25T09:42:11.673Z,55.00
2019-01-25T09:43:16.120Z,55.00
2019-01-25T09:44:20.378Z,54.80
2019-01-25T09:45:24.793Z,54.90
2019-01-25T09:46:30.169Z,54.70
2019-01-25T09:47:34.568Z,54.50
2019-01-25T09:48:38.902Z,54.60
2019-01-25T09:49:43.242Z,54.50
2019-01-25T09:50:52.737Z,54.20
2019-01-25T09:51:53.482Z,54.10
2019-01-25T09:52:57.759Z,53.90
2019-01-25T09:54:02.068Z,53.80
2019-01-25T09:55:08.485Z,53.50
2019-01-25T09:56:13.157Z,53.50
2019-01-25T09:57:17.683Z,53.20
2019-01-25T09:58:22.009Z,53.00
2019-01-25T09:59:26.296Z,52.70
2019-01-25T10:00:39.861Z,52.50
2019-01-25T10:01:44.218Z,52.30
2019-01-25T10:02:48.504Z,51.70
2019-01-25T10:03:52.902Z,51.60
2019-01-25T10:04:57.178Z,51.30
2019-01-25T10:06:01.527Z,51.00
2019-01-25T10:07:05.884Z,50.70
2019-01-25T10:08:10.157Z,50.20
2019-01-25T10:09:14.450Z,49.30
2019-01-25T10:10:18.869Z,48.30
2019-01-25T10:11:23.149Z,47.70
2019-01-25T10:12:27.433Z,47.40
2019-01-25T10:13:31.709Z,47.20
2019-01-25T10:14:36.009Z,47.00
2019-01-25T10:15:40.358Z,46.40
2019-01-25T10:16:44.649Z,45.70
2019-01-25T10:17:49.022Z,45.00
2019-01-25T10:18:53.326Z,45.30
2019-01-25T10:19:57.602Z,44.20
2019-01-25T10:21:01.945Z,43.90
2019-01-25T10:22:06.457Z,43.40
2019-01-25T10:23:10.805Z,42.90
2019-01-25T10:24:15.077Z,42.30
2019-01-25T10:25:19.511Z,41.30
2019-01-25T10:26:23.774Z,41.20
2019-01-25T10:27:28.038Z,41.40
2019-01-25T10:28:32.314Z,41.20
2019-01-25T10:29:36.594Z,41.60
2019-01-25T10:30:40.863Z,42.00
2019-01-25T10:31:45.289Z,42.40
2019-01-25T10:32:49.726Z,43.10
2019-01-25T10:33:54.070Z,44.00
2019-01-25T10:34:58.355Z,44.60
2019-01-25T10:36:02.682Z,45.10
2019-01-25T10:37:06.953Z,45.70
2019-01-25T10:38:11.238Z,46.20
2019-01-25T10:39:15.566Z,46.60
2019-01-25T10:40:20.126Z,46.80
2019-01-25T10:41:24.461Z,47.30
2019-01-25T10:42:28.879Z,47.80
2019-01-25T10:43:33.323Z,48.00
2019-01-25T10:44:37.718Z,48.40
2019-01-25T10:45:42.337Z,48.90
2019-01-25T10:46:46.621Z,49.10
2019-01-25T10:47:50.933Z,49.00
2019-01-25T10:48:55.219Z,49.30
2019-01-25T10:49:59.501Z,49.60
2019-01-25T10:51:04.032Z,49.70
2019-01-25T10:52:09.143Z,50.00
2019-01-25T10:53:13.453Z,50.30
2019-01-25T10:54:17.842Z,49.90
2019-01-25T10:55:22.377Z,49.70
2019-01-25T10:56:26.646Z,49.70
2019-01-25T10:57:31.002Z,49.70
2019-01-25T10:58:35.302Z,50.20
2019-01-25T10:59:39.602Z,50.50
2019-01-25T11:00:43.908Z,50.60
2019-01-25T11:01:48.162Z,51.00
2019-01-25T11:02:57.966Z,51.00
2019-01-25T11:03:58.567Z,50.90
2019-01-25T11:05:02.986Z,51.30
2019-01-25T11:06:07.441Z,51.30
2019-01-25T11:07:11.726Z,51.70
2019-01-25T11:08:15.997Z,51.90
2019-01-25T11:09:20.279Z,51.90
2019-01-25T11:10:24.657Z,52.00
2019-01-25T11:11:28.927Z,52.50
2019-01-25T11:12:33.197Z,52.90
2019-01-25T11:13:37.515Z,52.90
2019-01-25T11:14:41.777Z,53.30
2019-01-25T11:15:46.118Z,53.60
2019-01-25T11:16:50.394Z,53.80
2019-01-25T11:17:54.653Z,54.20
2019-01-25T11:18:58.945Z,54.00
2019-01-25T11:20:03.293Z,54.10
2019-01-25T11:21:07.654Z,54.40
2019-01-25T11:22:11.926Z,54.60
2019-01-25T11:23:16.194Z,54.70
2019-01-25T11:24:20.498Z,54.70
2019-01-25T11:25:30.294Z,54.60
2019-01-25T11:26:34.586Z,54.70
2019-01-25T11:27:38.845Z,54.70
2019-01-25T11:28:43.185Z,55.10
2019-01-25T11:29:47.473Z,55.50
2019-01-25T11:30:51.739Z,55.90
2019-01-25T11:31:56.001Z,56.20
2019-01-25T11:33:00.270Z,56.40
2019-01-25T11:34:04.701Z,56.50
2019-01-25T11:35:09.118Z,56.30
2019-01-25T11:36:13.458Z,56.50
2019-01-25T11:37:17.718Z,56.60
2019-01-25T11:38:22.058Z,56.80
2019-01-25T11:39:26.432Z,56.80
2019-01-25T11:40:33.349Z,57.10
2019-01-25T11:41:37.646Z,57.00
2019-01-25T11:42:41.925Z,57.60
2019-01-25T11:43:46.292Z,58.00
2019-01-25T11:44:50.579Z,58.20
2019-01-25T11:45:54.937Z,58.40
2019-01-25T11:46:59.279Z,58.40
2019-01-25T11:48:03.878Z,58.70
2019-01-25T11:49:08.147Z,58.80
2019-01-25T11:50:13.722Z,59.10
2019-01-25T11:51:17.998Z,59.40
2019-01-25T11:52:25.069Z,59.60
2019-01-25T11:53:28.331Z,59.70
2019-01-25T11:54:32.630Z,59.80
2019-01-25T11:55:36.969Z,59.80
2019-01-25T11:56:41.250Z,60.00
2019-01-25T11:57:45.676Z,59.70
2019-01-25T11:58:50.037Z,59.60
2019-01-25T11:59:54.318Z,59.50
2019-01-25T12:00:58.733Z,59.50
2019-01-25T12:02:03.015Z,59.70
2019-01-25T12:03:07.444Z,60.00
2019-01-25T12:04:11.789Z,60.10
2019-01-25T12:05:18.501Z,60.20
2019-01-25T12:06:22.766Z,60.40
2019-01-25T12:07:27.038Z,60.30
2019-01-25T12:08:31.329Z,60.40
2019-01-25T12:09:35.602Z,60.40
2019-01-25T12:10:39.974Z,60.20
2019-01-25T12:11:44.245Z,60.10
2019-01-25T12:12:48.612Z,60.10
2019-01-25T12:13:52.873Z,59.90
2019-01-25T12:14:57.142Z,59.80
2019-01-25T12:16:01.426Z,59.70
2019-01-25T12:17:05.866Z,59.50
2019-01-25T12:18:10.226Z,59.50
2019-01-25T12:19:14.627Z,59.20
2019-01-25T12:20:21.181Z,59.40
2019-01-25T12:21:25.455Z,59.60
2019-01-25T12:22:29.800Z,59.50
2019-01-25T12:23:34.109Z,59.90
2019-01-25T12:24:38.399Z,60.40
2019-01-25T12:25:42.672Z,60.90
2019-01-25T12:26:46.959Z,60.90
2019-01-25T12:27:51.325Z,61.00
2019-01-25T12:28:55.599Z,62.40
2019-01-25T12:29:59.891Z,61.80
2019-01-25T12:31:04.393Z,62.20
2019-01-25T12:32:08.667Z,62.60
2019-01-25T12:33:12.938Z,63.10
2019-01-25T12:34:17.227Z,63.70
2019-01-25T12:35:21.514Z,63.90
2019-01-25T12:36:25.809Z,64.10
2019-01-25T12:37:30.102Z,64.30
2019-01-25T12:38:34.400Z,65.20
2019-01-25T12:39:38.669Z,64.50
2019-01-25T12:40:43.017Z,64.70
2019-01-25T12:41:47.318Z,65.00
2019-01-25T12:42:51.682Z,65.30
2019-01-25T12:43:55.957Z,65.60
2019-01-25T12:45:00.297Z,65.90
2019-01-25T12:46:04.646Z,66.10
2019-01-25T12:47:08.927Z,66.20
2019-01-25T12:48:13.281Z,66.20
2019-01-25T12:49:17.563Z,66.30
2019-01-25T12:50:25.018Z,67.30
2019-01-25T12:51:40.529Z,66.40
2019-01-25T12:52:44.870Z,66.50
2019-01-25T12:53:49.285Z,66.70
2019-01-25T12:54:53.562Z,66.90
2019-01-25T12:55:57.905Z,66.80
2019-01-25T12:57:02.193Z,66.80
2019-01-25T12:58:06.745Z,66.60
2019-01-25T12:59:11.012Z,66.50
2019-01-25T13:00:16.314Z,66.40
2019-01-25T13:01:22.162Z,66.40
2019-01-25T13:02:26.525Z,66.50
2019-01-25T13:03:30.806Z,66.30
2019-01-25T13:04:35.081Z,66.40
2019-01-25T13:05:39.522Z,67.10
2019-01-25T13:06:43.809Z,67.50
2019-01-25T13:07:48.074Z,68.80
2019-01-25T13:08:52.439Z,68.40
2019-01-25T13:09:56.709Z,68.30
2019-01-25T13:11:01.066Z,67.50
2019-01-25T13:12:05.650Z,66.00
2019-01-25T13:13:10.002Z,66.70
2019-01-25T13:14:14.287Z,67.50
2019-01-25T13:15:18.712Z,66.80
2019-01-25T13:16:22.990Z,66.00
2019-01-25T13:17:27.282Z,66.50
2019-01-25T13:18:31.629Z,67.00
2019-01-25T13:19:35.899Z,65.00
2019-01-25T13:20:40.170Z,64.70
2019-01-25T13:21:44.455Z,64.30
2019-01-25T13:22:48.854Z,63.90
2019-01-25T13:23:53.135Z,62.80
2019-01-25T13:24:57.474Z,62.00
2019-01-25T13:26:01.824Z,61.20
2019-01-25T13:27:06.441Z,61.40
2019-01-25T13:28:10.958Z,61.70
2019-01-25T13:29:15.317Z,61.20
2019-01-25T13:30:21.926Z,60.60
2019-01-25T13:31:26.198Z,60.50
2019-01-25T13:32:30.566Z,61.20
2019-01-25T13:33:35.078Z,61.10
2019-01-25T13:34:39.369Z,61.50
2019-01-25T13:35:43.742Z,63.70
2019-01-25T13:36:48.237Z,63.80
2019-01-25T13:37:52.650Z,62.40
2019-01-25T13:38:56.932Z,62.00
2019-01-25T13:40:01.223Z,62.10
2019-01-25T13:41:05.648Z,63.10
2019-01-25T13:42:09.914Z,63.40
2019-01-25T13:43:14.223Z,62.60
2019-01-25T13:44:18.498Z,61.60
2019-01-25T13:45:23.518Z,61.30
2019-01-25T13:46:27.802Z,63.50
2019-01-25T13:47:32.081Z,62.90
2019-01-25T13:48:36.371Z,64.80
2019-01-25T13:49:40.654Z,65.40
2019-01-25T13:50:44.929Z,64.00
2019-01-25T13:51:49.209Z,63.70
2019-01-25T13:52:53.635Z,63.20